sensor_id;sensor_type;location;lat;lon;timestamp;P1;durP1;ratioP1;P2;durP2;ratioP2
61915;SDS011;47868;51.326;6.550;2022-07-05T00:00:03;3.80;;;2.92;;
61915;SDS011;47868;51.326;6.550;2022-07-05T00:02:30;4.30;;;2.80;;
61915;SDS011;47868;51.326;6.550;2022-07-05T00:04:56;4.85;;;2.78;;
61915;SDS011;47868;51.326;6.550;2022-07-05T00:07:22;5.30;;;2.70;;
61915;SDS011;47868;51.326;6.550;2022-07-05T00:09:49;3.10;;;2.83;;
61915;SDS011;47868;51.326;6.550;2022-07-05T00:12:17;4.28;;;3.05;;
61915;SDS011;47868;51.326;6.550;2022-07-05T00:14:43;8.63;;;3.30;;
61915;SDS011;47868;51.326;6.550;2022-07-05T00:17:10;4.05;;;3.40;;
61915;SDS011;47868;51.326;6.550;2022-07-05T00:19:36;6.97;;;3.47;;
61915;SDS011;47868;51.326;6.550;2022-07-05T00:22:02;5.80;;;3.65;;
61915;SDS011;47868;51.326;6.550;2022-07-05T00:24:28;4.53;;;3.03;;
61915;SDS011;47868;51.326;6.550;2022-07-05T00:26:54;4.63;;;3.05;;
61915;SDS011;47868;51.326;6.550;2022-07-05T00:29:19;5.90;;;3.83;;
61915;SDS011;47868;51.326;6.550;2022-07-05T00:31:45;3.88;;;3.30;;
61915;SDS011;47868;51.326;6.550;2022-07-05T00:34:11;3.40;;;3.10;;
61915;SDS011;47868;51.326;6.550;2022-07-05T00:36:36;4.20;;;3.50;;
61915;SDS011;47868;51.326;6.550;2022-07-05T00:39:02;4.85;;;3.58;;
61915;SDS011;47868;51.326;6.550;2022-07-05T00:41:28;5.70;;;4.32;;
61915;SDS011;47868;51.326;6.550;2022-07-05T00:43:58;4.43;;;3.75;;
61915;SDS011;47868;51.326;6.550;2022-07-05T00:46:26;5.85;;;3.95;;
61915;SDS011;47868;51.326;6.550;2022-07-05T00:48:53;5.65;;;3.58;;
61915;SDS011;47868;51.326;6.550;2022-07-05T00:51:19;5.03;;;4.10;;
61915;SDS011;47868;51.326;6.550;2022-07-05T00:53:46;4.60;;;3.60;;
61915;SDS011;47868;51.326;6.550;2022-07-05T00:56:12;3.72;;;3.42;;
61915;SDS011;47868;51.326;6.550;2022-07-05T00:58:38;4.63;;;3.45;;
61915;SDS011;47868;51.326;6.550;2022-07-05T01:01:05;5.07;;;3.83;;
61915;SDS011;47868;51.326;6.550;2022-07-05T01:03:32;5.10;;;3.30;;
61915;SDS011;47868;51.326;6.550;2022-07-05T01:05:58;7.15;;;4.00;;
61915;SDS011;47868;51.326;6.550;2022-07-05T01:08:30;4.13;;;3.72;;
61915;SDS011;47868;51.326;6.550;2022-07-05T01:10:58;4.20;;;3.60;;
61915;SDS011;47868;51.326;6.550;2022-07-05T01:13:24;4.82;;;3.80;;
61915;SDS011;47868;51.326;6.550;2022-07-05T01:15:51;3.88;;;3.53;;
61915;SDS011;47868;51.326;6.550;2022-07-05T01:18:18;5.75;;;3.60;;
61915;SDS011;47868;51.326;6.550;2022-07-05T01:20:46;5.57;;;3.92;;
61915;SDS011;47868;51.326;6.550;2022-07-05T01:23:13;3.97;;;3.30;;
61915;SDS011;47868;51.326;6.550;2022-07-05T01:25:39;8.63;;;3.58;;
61915;SDS011;47868;51.326;6.550;2022-07-05T01:28:05;5.53;;;3.40;;
61915;SDS011;47868;51.326;6.550;2022-07-05T01:30:32;5.93;;;3.28;;
61915;SDS011;47868;51.326;6.550;2022-07-05T01:33:00;4.05;;;3.60;;
61915;SDS011;47868;51.326;6.550;2022-07-05T01:35:25;6.03;;;3.53;;
61915;SDS011;47868;51.326;6.550;2022-07-05T01:37:51;5.03;;;3.60;;
61915;SDS011;47868;51.326;6.550;2022-07-05T01:40:17;3.05;;;2.65;;
61915;SDS011;47868;51.326;6.550;2022-07-05T01:42:44;4.80;;;3.03;;
61915;SDS011;47868;51.326;6.550;2022-07-05T01:45:10;8.07;;;3.30;;
61915;SDS011;47868;51.326;6.550;2022-07-05T01:47:37;4.68;;;3.70;;
61915;SDS011;47868;51.326;6.550;2022-07-05T01:50:09;6.35;;;3.95;;
61915;SDS011;47868;51.326;6.550;2022-07-05T01:52:38;6.00;;;3.92;;
61915;SDS011;47868;51.326;6.550;2022-07-05T01:55:06;2.88;;;2.67;;
61915;SDS011;47868;51.326;6.550;2022-07-05T01:57:32;5.28;;;3.10;;
61915;SDS011;47868;51.326;6.550;2022-07-05T01:59:58;6.03;;;3.15;;
61915;SDS011;47868;51.326;6.550;2022-07-05T02:02:23;7.45;;;3.55;;
61915;SDS011;47868;51.326;6.550;2022-07-05T02:04:49;7.00;;;3.42;;
61915;SDS011;47868;51.326;6.550;2022-07-05T02:07:14;5.25;;;3.10;;
61915;SDS011;47868;51.326;6.550;2022-07-05T02:09:40;6.75;;;3.67;;
61915;SDS011;47868;51.326;6.550;2022-07-05T02:12:07;4.13;;;3.25;;
61915;SDS011;47868;51.326;6.550;2022-07-05T02:14:33;5.10;;;3.55;;
61915;SDS011;47868;51.326;6.550;2022-07-05T02:16:58;5.45;;;3.25;;
61915;SDS011;47868;51.326;6.550;2022-07-05T02:19:24;7.50;;;3.60;;
61915;SDS011;47868;51.326;6.550;2022-07-05T02:21:50;4.70;;;3.88;;
61915;SDS011;47868;51.326;6.550;2022-07-05T02:24:16;4.30;;;3.80;;
61915;SDS011;47868;51.326;6.550;2022-07-05T02:26:41;6.35;;;4.60;;
61915;SDS011;47868;51.326;6.550;2022-07-05T02:29:07;5.55;;;4.22;;
61915;SDS011;47868;51.326;6.550;2022-07-05T02:31:33;4.85;;;4.45;;
61915;SDS011;47868;51.326;6.550;2022-07-05T02:33:59;6.45;;;4.60;;
61915;SDS011;47868;51.326;6.550;2022-07-05T02:36:25;7.72;;;4.57;;
61915;SDS011;47868;51.326;6.550;2022-07-05T02:38:51;5.60;;;4.78;;
61915;SDS011;47868;51.326;6.550;2022-07-05T02:41:17;6.57;;;4.70;;
61915;SDS011;47868;51.326;6.550;2022-07-05T02:43:43;5.80;;;4.70;;
61915;SDS011;47868;51.326;6.550;2022-07-05T02:46:09;10.93;;;5.07;;
61915;SDS011;47868;51.326;6.550;2022-07-05T02:48:35;9.52;;;5.15;;
61915;SDS011;47868;51.326;6.550;2022-07-05T02:51:02;8.50;;;4.70;;
61915;SDS011;47868;51.326;6.550;2022-07-05T02:53:28;4.95;;;4.43;;
61915;SDS011;47868;51.326;6.550;2022-07-05T02:55:54;6.20;;;5.15;;
61915;SDS011;47868;51.326;6.550;2022-07-05T02:58:20;6.38;;;5.22;;
61915;SDS011;47868;51.326;6.550;2022-07-05T03:00:46;7.55;;;5.50;;
61915;SDS011;47868;51.326;6.550;2022-07-05T03:03:13;12.07;;;5.65;;
61915;SDS011;47868;51.326;6.550;2022-07-05T03:05:40;6.03;;;5.05;;
61915;SDS011;47868;51.326;6.550;2022-07-05T03:08:05;6.57;;;5.20;;
61915;SDS011;47868;51.326;6.550;2022-07-05T03:10:31;8.00;;;4.90;;
61915;SDS011;47868;51.326;6.550;2022-07-05T03:12:58;6.72;;;4.97;;
61915;SDS011;47868;51.326;6.550;2022-07-05T03:15:24;6.82;;;4.88;;
61915;SDS011;47868;51.326;6.550;2022-07-05T03:17:50;7.40;;;5.03;;
61915;SDS011;47868;51.326;6.550;2022-07-05T03:20:15;7.15;;;4.50;;
61915;SDS011;47868;51.326;6.550;2022-07-05T03:22:41;5.03;;;4.47;;
61915;SDS011;47868;51.326;6.550;2022-07-05T03:25:07;7.55;;;4.60;;
61915;SDS011;47868;51.326;6.550;2022-07-05T03:27:33;6.57;;;4.57;;
61915;SDS011;47868;51.326;6.550;2022-07-05T03:29:59;11.60;;;5.65;;
61915;SDS011;47868;51.326;6.550;2022-07-05T03:32:25;5.30;;;4.05;;
61915;SDS011;47868;51.326;6.550;2022-07-05T03:34:50;5.90;;;4.70;;
61915;SDS011;47868;51.326;6.550;2022-07-05T03:37:16;6.65;;;4.82;;
61915;SDS011;47868;51.326;6.550;2022-07-05T03:39:42;6.18;;;4.32;;
61915;SDS011;47868;51.326;6.550;2022-07-05T03:42:07;7.72;;;4.65;;
61915;SDS011;47868;51.326;6.550;2022-07-05T03:44:33;5.35;;;4.53;;
61915;SDS011;47868;51.326;6.550;2022-07-05T03:46:59;5.95;;;4.75;;
61915;SDS011;47868;51.326;6.550;2022-07-05T03:49:25;10.80;;;6.00;;
61915;SDS011;47868;51.326;6.550;2022-07-05T03:51:51;8.15;;;5.30;;
61915;SDS011;47868;51.326;6.550;2022-07-05T03:54:16;6.10;;;5.32;;
61915;SDS011;47868;51.326;6.550;2022-07-05T03:56:42;9.32;;;5.90;;
61915;SDS011;47868;51.326;6.550;2022-07-05T03:59:08;7.93;;;5.88;;
61915;SDS011;47868;51.326;6.550;2022-07-05T04:01:34;8.43;;;6.45;;
61915;SDS011;47868;51.326;6.550;2022-07-05T04:04:00;8.00;;;6.55;;
61915;SDS011;47868;51.326;6.550;2022-07-05T04:06:25;10.10;;;6.82;;
61915;SDS011;47868;51.326;6.550;2022-07-05T04:08:51;9.98;;;7.03;;
61915;SDS011;47868;51.326;6.550;2022-07-05T04:11:17;12.20;;;6.72;;
61915;SDS011;47868;51.326;6.550;2022-07-05T04:13:43;8.38;;;6.60;;
61915;SDS011;47868;51.326;6.550;2022-07-05T04:16:09;10.10;;;6.88;;
61915;SDS011;47868;51.326;6.550;2022-07-05T04:18:34;7.10;;;6.40;;
61915;SDS011;47868;51.326;6.550;2022-07-05T04:21:00;8.93;;;6.50;;
61915;SDS011;47868;51.326;6.550;2022-07-05T04:23:27;7.68;;;6.88;;
61915;SDS011;47868;51.326;6.550;2022-07-05T04:25:53;10.25;;;6.68;;
61915;SDS011;47868;51.326;6.550;2022-07-05T04:28:19;7.57;;;6.78;;
61915;SDS011;47868;51.326;6.550;2022-07-05T04:30:45;13.95;;;7.13;;
61915;SDS011;47868;51.326;6.550;2022-07-05T04:33:10;9.10;;;6.57;;
61915;SDS011;47868;51.326;6.550;2022-07-05T04:35:36;7.03;;;6.32;;
61915;SDS011;47868;51.326;6.550;2022-07-05T04:38:02;9.10;;;6.88;;
61915;SDS011;47868;51.326;6.550;2022-07-05T04:40:27;10.23;;;6.97;;
61915;SDS011;47868;51.326;6.550;2022-07-05T04:42:54;8.77;;;6.97;;
61915;SDS011;47868;51.326;6.550;2022-07-05T04:45:20;9.48;;;6.82;;
61915;SDS011;47868;51.326;6.550;2022-07-05T04:47:45;7.78;;;6.40;;
61915;SDS011;47868;51.326;6.550;2022-07-05T04:50:11;8.45;;;7.10;;
61915;SDS011;47868;51.326;6.550;2022-07-05T04:52:37;9.80;;;6.97;;
61915;SDS011;47868;51.326;6.550;2022-07-05T04:55:02;9.23;;;6.50;;
61915;SDS011;47868;51.326;6.550;2022-07-05T04:57:36;17.92;;;6.72;;
61915;SDS011;47868;51.326;6.550;2022-07-05T05:00:06;9.20;;;6.72;;
61915;SDS011;47868;51.326;6.550;2022-07-05T05:02:36;9.65;;;6.00;;
61915;SDS011;47868;51.326;6.550;2022-07-05T05:05:02;8.25;;;6.60;;
61915;SDS011;47868;51.326;6.550;2022-07-05T05:07:28;8.70;;;6.10;;
61915;SDS011;47868;51.326;6.550;2022-07-05T05:09:54;8.07;;;6.38;;
61915;SDS011;47868;51.326;6.550;2022-07-05T05:12:20;7.60;;;6.53;;
61915;SDS011;47868;51.326;6.550;2022-07-05T05:14:46;10.70;;;6.60;;
61915;SDS011;47868;51.326;6.550;2022-07-05T05:17:11;7.30;;;6.25;;
61915;SDS011;47868;51.326;6.550;2022-07-05T05:19:37;8.93;;;6.80;;
61915;SDS011;47868;51.326;6.550;2022-07-05T05:22:03;7.22;;;6.05;;
61915;SDS011;47868;51.326;6.550;2022-07-05T05:24:29;10.13;;;6.32;;
61915;SDS011;47868;51.326;6.550;2022-07-05T05:26:54;8.77;;;6.22;;
61915;SDS011;47868;51.326;6.550;2022-07-05T05:29:20;10.43;;;6.40;;
61915;SDS011;47868;51.326;6.550;2022-07-05T05:31:47;12.80;;;6.15;;
61915;SDS011;47868;51.326;6.550;2022-07-05T05:34:13;8.82;;;6.70;;
61915;SDS011;47868;51.326;6.550;2022-07-05T05:36:38;7.45;;;6.50;;
61915;SDS011;47868;51.326;6.550;2022-07-05T05:39:04;8.80;;;6.38;;
61915;SDS011;47868;51.326;6.550;2022-07-05T05:41:30;8.60;;;6.47;;
61915;SDS011;47868;51.326;6.550;2022-07-05T05:43:56;7.68;;;6.65;;
61915;SDS011;47868;51.326;6.550;2022-07-05T05:46:21;8.13;;;6.95;;
61915;SDS011;47868;51.326;6.550;2022-07-05T05:48:47;8.90;;;6.88;;
61915;SDS011;47868;51.326;6.550;2022-07-05T05:51:13;10.57;;;6.47;;
61915;SDS011;47868;51.326;6.550;2022-07-05T05:53:38;12.73;;;7.30;;
61915;SDS011;47868;51.326;6.550;2022-07-05T05:56:04;11.93;;;7.28;;
61915;SDS011;47868;51.326;6.550;2022-07-05T05:58:30;9.35;;;7.13;;
61915;SDS011;47868;51.326;6.550;2022-07-05T06:00:56;14.07;;;6.75;;
61915;SDS011;47868;51.326;6.550;2022-07-05T06:03:22;10.23;;;6.80;;
61915;SDS011;47868;51.326;6.550;2022-07-05T06:05:49;7.95;;;6.97;;
61915;SDS011;47868;51.326;6.550;2022-07-05T06:08:15;7.78;;;6.70;;
61915;SDS011;47868;51.326;6.550;2022-07-05T06:10:42;14.00;;;6.53;;
61915;SDS011;47868;51.326;6.550;2022-07-05T06:13:08;11.15;;;6.40;;
61915;SDS011;47868;51.326;6.550;2022-07-05T06:15:36;8.23;;;5.80;;
61915;SDS011;47868;51.326;6.550;2022-07-05T06:18:03;10.23;;;5.60;;
61915;SDS011;47868;51.326;6.550;2022-07-05T06:20:32;7.95;;;5.90;;
61915;SDS011;47868;51.326;6.550;2022-07-05T06:22:59;8.27;;;5.32;;
61915;SDS011;47868;51.326;6.550;2022-07-05T06:25:26;9.35;;;5.75;;
61915;SDS011;47868;51.326;6.550;2022-07-05T06:30:19;8.95;;;5.30;;
61915;SDS011;47868;51.326;6.550;2022-07-05T06:32:47;6.13;;;4.97;;
61915;SDS011;47868;51.326;6.550;2022-07-05T06:35:13;13.02;;;4.60;;
61915;SDS011;47868;51.326;6.550;2022-07-05T06:37:40;9.27;;;4.95;;
61915;SDS011;47868;51.326;6.550;2022-07-05T06:40:08;16.95;;;4.93;;
61915;SDS011;47868;51.326;6.550;2022-07-05T06:42:34;9.38;;;4.93;;
61915;SDS011;47868;51.326;6.550;2022-07-05T06:45:00;7.25;;;4.80;;
61915;SDS011;47868;51.326;6.550;2022-07-05T06:47:26;7.03;;;4.28;;
61915;SDS011;47868;51.326;6.550;2022-07-05T06:49:52;8.85;;;3.58;;
61915;SDS011;47868;51.326;6.550;2022-07-05T06:52:17;5.05;;;3.67;;
61915;SDS011;47868;51.326;6.550;2022-07-05T06:54:43;5.45;;;3.47;;
61915;SDS011;47868;51.326;6.550;2022-07-05T06:57:09;6.97;;;4.05;;
61915;SDS011;47868;51.326;6.550;2022-07-05T06:59:35;6.13;;;2.30;;
61915;SDS011;47868;51.326;6.550;2022-07-05T07:02:01;8.23;;;3.28;;
61915;SDS011;47868;51.326;6.550;2022-07-05T07:04:28;4.32;;;3.20;;
61915;SDS011;47868;51.326;6.550;2022-07-05T07:06:53;2.92;;;2.30;;
61915;SDS011;47868;51.326;6.550;2022-07-05T07:09:19;3.20;;;2.20;;
61915;SDS011;47868;51.326;6.550;2022-07-05T07:11:47;3.38;;;1.80;;
61915;SDS011;47868;51.326;6.550;2022-07-05T07:14:13;5.78;;;2.25;;
61915;SDS011;47868;51.326;6.550;2022-07-05T07:16:40;5.82;;;2.22;;
61915;SDS011;47868;51.326;6.550;2022-07-05T07:19:05;3.00;;;1.70;;
61915;SDS011;47868;51.326;6.550;2022-07-05T07:21:31;5.22;;;1.90;;
61915;SDS011;47868;51.326;6.550;2022-07-05T07:23:57;3.35;;;1.42;;
61915;SDS011;47868;51.326;6.550;2022-07-05T07:26:22;4.38;;;1.77;;
61915;SDS011;47868;51.326;6.550;2022-07-05T07:28:48;3.60;;;1.73;;
61915;SDS011;47868;51.326;6.550;2022-07-05T07:31:14;5.38;;;1.73;;
61915;SDS011;47868;51.326;6.550;2022-07-05T07:33:39;1.60;;;1.13;;
61915;SDS011;47868;51.326;6.550;2022-07-05T07:36:06;4.80;;;1.58;;
61915;SDS011;47868;51.326;6.550;2022-07-05T07:38:32;4.13;;;1.65;;
61915;SDS011;47868;51.326;6.550;2022-07-05T07:40:58;5.32;;;1.35;;
61915;SDS011;47868;51.326;6.550;2022-07-05T07:43:25;3.97;;;1.58;;
61915;SDS011;47868;51.326;6.550;2022-07-05T07:45:51;3.17;;;1.52;;
61915;SDS011;47868;51.326;6.550;2022-07-05T07:48:17;2.67;;;1.48;;
61915;SDS011;47868;51.326;6.550;2022-07-05T07:50:43;2.10;;;1.70;;
61915;SDS011;47868;51.326;6.550;2022-07-05T07:53:09;3.33;;;1.55;;
61915;SDS011;47868;51.326;6.550;2022-07-05T07:55:35;3.63;;;1.95;;
61915;SDS011;47868;51.326;6.550;2022-07-05T07:58:01;1.85;;;1.70;;
61915;SDS011;47868;51.326;6.550;2022-07-05T08:00:27;3.13;;;1.98;;
61915;SDS011;47868;51.326;6.550;2022-07-05T08:02:53;3.03;;;1.95;;
61915;SDS011;47868;51.326;6.550;2022-07-05T08:05:18;1.90;;;1.70;;
61915;SDS011;47868;51.326;6.550;2022-07-05T08:07:44;5.68;;;1.60;;
61915;SDS011;47868;51.326;6.550;2022-07-05T08:10:10;2.00;;;1.40;;
61915;SDS011;47868;51.326;6.550;2022-07-05T08:12:35;6.03;;;1.85;;
61915;SDS011;47868;51.326;6.550;2022-07-05T08:15:01;3.35;;;1.95;;
61915;SDS011;47868;51.326;6.550;2022-07-05T08:17:27;3.42;;;1.92;;
61915;SDS011;47868;51.326;6.550;2022-07-05T08:19:53;7.22;;;1.95;;
61915;SDS011;47868;51.326;6.550;2022-07-05T08:22:37;2.05;;;1.73;;
61915;SDS011;47868;51.326;6.550;2022-07-05T08:25:03;5.97;;;1.63;;
61915;SDS011;47868;51.326;6.550;2022-07-05T08:27:29;2.75;;;1.60;;
61915;SDS011;47868;51.326;6.550;2022-07-05T08:29:54;2.72;;;1.58;;
61915;SDS011;47868;51.326;6.550;2022-07-05T08:32:20;2.33;;;1.75;;
61915;SDS011;47868;51.326;6.550;2022-07-05T08:34:46;3.25;;;1.90;;
61915;SDS011;47868;51.326;6.550;2022-07-05T08:37:12;2.42;;;1.83;;
61915;SDS011;47868;51.326;6.550;2022-07-05T08:39:38;1.95;;;1.63;;
61915;SDS011;47868;51.326;6.550;2022-07-05T08:42:03;4.93;;;1.60;;
61915;SDS011;47868;51.326;6.550;2022-07-05T08:44:35;2.35;;;1.92;;
61915;SDS011;47868;51.326;6.550;2022-07-05T08:47:04;3.78;;;1.90;;
61915;SDS011;47868;51.326;6.550;2022-07-05T08:49:37;3.67;;;1.85;;
61915;SDS011;47868;51.326;6.550;2022-07-05T08:52:06;4.93;;;2.00;;
61915;SDS011;47868;51.326;6.550;2022-07-05T08:54:35;4.82;;;1.85;;
61915;SDS011;47868;51.326;6.550;2022-07-05T08:57:02;3.75;;;1.77;;
61915;SDS011;47868;51.326;6.550;2022-07-05T08:59:28;4.78;;;2.25;;
61915;SDS011;47868;51.326;6.550;2022-07-05T09:01:54;5.15;;;2.42;;
61915;SDS011;47868;51.326;6.550;2022-07-05T09:04:22;4.93;;;2.60;;
61915;SDS011;47868;51.326;6.550;2022-07-05T09:06:52;5.70;;;2.53;;
61915;SDS011;47868;51.326;6.550;2022-07-05T09:09:21;6.10;;;2.47;;
61915;SDS011;47868;51.326;6.550;2022-07-05T09:11:48;5.38;;;2.47;;
61915;SDS011;47868;51.326;6.550;2022-07-05T09:14:18;4.50;;;2.50;;
61915;SDS011;47868;51.326;6.550;2022-07-05T09:16:47;2.72;;;2.25;;
61915;SDS011;47868;51.326;6.550;2022-07-05T09:19:13;4.50;;;2.80;;
61915;SDS011;47868;51.326;6.550;2022-07-05T09:21:39;2.72;;;2.53;;
61915;SDS011;47868;51.326;6.550;2022-07-05T09:24:07;3.13;;;2.80;;
61915;SDS011;47868;51.326;6.550;2022-07-05T09:26:41;7.80;;;2.83;;
61915;SDS011;47868;51.326;6.550;2022-07-05T09:29:17;4.75;;;3.35;;
61915;SDS011;47868;51.326;6.550;2022-07-05T09:31:45;3.08;;;2.70;;
61915;SDS011;47868;51.326;6.550;2022-07-05T09:34:17;3.65;;;2.30;;
61915;SDS011;47868;51.326;6.550;2022-07-05T09:39:12;3.05;;;2.30;;
61915;SDS011;47868;51.326;6.550;2022-07-05T09:41:38;5.18;;;3.00;;
61915;SDS011;47868;51.326;6.550;2022-07-05T09:44:04;4.30;;;2.72;;
61915;SDS011;47868;51.326;6.550;2022-07-05T09:46:30;5.32;;;2.72;;
61915;SDS011;47868;51.326;6.550;2022-07-05T09:48:56;3.63;;;2.60;;
61915;SDS011;47868;51.326;6.550;2022-07-05T09:51:22;10.98;;;3.03;;
61915;SDS011;47868;51.326;6.550;2022-07-05T09:53:51;11.73;;;3.42;;
61915;SDS011;47868;51.326;6.550;2022-07-05T09:56:18;4.57;;;2.58;;
61915;SDS011;47868;51.326;6.550;2022-07-05T09:58:45;6.20;;;2.95;;
61915;SDS011;47868;51.326;6.550;2022-07-05T10:01:30;4.97;;;2.38;;
61915;SDS011;47868;51.326;6.550;2022-07-05T10:03:58;4.13;;;2.17;;
61915;SDS011;47868;51.326;6.550;2022-07-05T10:06:28;3.45;;;2.38;;
61915;SDS011;47868;51.326;6.550;2022-07-05T10:08:56;6.20;;;2.72;;
61915;SDS011;47868;51.326;6.550;2022-07-05T10:11:23;6.10;;;2.50;;
61915;SDS011;47868;51.326;6.550;2022-07-05T10:13:55;6.75;;;3.63;;
61915;SDS011;47868;51.326;6.550;2022-07-05T10:16:21;4.70;;;2.67;;
61915;SDS011;47868;51.326;6.550;2022-07-05T10:18:51;7.05;;;2.65;;
61915;SDS011;47868;51.326;6.550;2022-07-05T10:21:20;2.10;;;1.90;;
61915;SDS011;47868;51.326;6.550;2022-07-05T10:23:49;4.10;;;2.35;;
61915;SDS011;47868;51.326;6.550;2022-07-05T10:26:25;3.35;;;2.63;;
61915;SDS011;47868;51.326;6.550;2022-07-05T10:28:53;5.50;;;2.78;;
61915;SDS011;47868;51.326;6.550;2022-07-05T10:31:19;5.63;;;2.70;;
61915;SDS011;47868;51.326;6.550;2022-07-05T10:33:45;4.25;;;2.45;;
61915;SDS011;47868;51.326;6.550;2022-07-05T10:36:11;8.85;;;2.83;;
61915;SDS011;47868;51.326;6.550;2022-07-05T10:38:38;2.92;;;2.35;;
61915;SDS011;47868;51.326;6.550;2022-07-05T10:41:07;4.43;;;2.03;;
61915;SDS011;47868;51.326;6.550;2022-07-05T10:43:35;5.18;;;2.38;;
61915;SDS011;47868;51.326;6.550;2022-07-05T10:46:01;2.75;;;1.80;;
61915;SDS011;47868;51.326;6.550;2022-07-05T10:48:31;2.80;;;1.60;;
61915;SDS011;47868;51.326;6.550;2022-07-05T10:58:40;3.53;;;1.67;;
61915;SDS011;47868;51.326;6.550;2022-07-05T11:11:39;4.35;;;1.90;;
61915;SDS011;47868;51.326;6.550;2022-07-05T11:16:44;4.63;;;1.50;;
61915;SDS011;47868;51.326;6.550;2022-07-05T11:19:12;2.45;;;1.92;;
61915;SDS011;47868;51.326;6.550;2022-07-05T11:21:59;2.80;;;1.67;;
61915;SDS011;47868;51.326;6.550;2022-07-05T11:24:33;6.25;;;1.75;;
61915;SDS011;47868;51.326;6.550;2022-07-05T11:27:00;1.60;;;1.50;;
61915;SDS011;47868;51.326;6.550;2022-07-05T11:34:41;2.00;;;1.63;;
61915;SDS011;47868;51.326;6.550;2022-07-05T11:39:43;5.95;;;2.25;;
61915;SDS011;47868;51.326;6.550;2022-07-05T11:42:09;4.90;;;1.73;;
61915;SDS011;47868;51.326;6.550;2022-07-05T11:44:36;5.50;;;2.03;;
61915;SDS011;47868;51.326;6.550;2022-07-05T11:47:05;5.22;;;2.33;;
61915;SDS011;47868;51.326;6.550;2022-07-05T11:49:31;2.28;;;1.60;;
61915;SDS011;47868;51.326;6.550;2022-07-05T11:51:58;4.35;;;1.95;;
61915;SDS011;47868;51.326;6.550;2022-07-05T11:54:25;4.55;;;2.15;;
61915;SDS011;47868;51.326;6.550;2022-07-05T11:56:52;4.32;;;2.22;;
61915;SDS011;47868;51.326;6.550;2022-07-05T11:59:21;4.53;;;1.85;;
61915;SDS011;47868;51.326;6.550;2022-07-05T12:01:48;2.42;;;2.08;;
61915;SDS011;47868;51.326;6.550;2022-07-05T12:04:28;2.70;;;2.00;;
61915;SDS011;47868;51.326;6.550;2022-07-05T12:06:55;3.80;;;2.20;;
61915;SDS011;47868;51.326;6.550;2022-07-05T12:09:22;5.00;;;3.03;;
61915;SDS011;47868;51.326;6.550;2022-07-05T12:11:53;5.85;;;2.85;;
61915;SDS011;47868;51.326;6.550;2022-07-05T12:14:46;5.38;;;1.80;;
61915;SDS011;47868;51.326;6.550;2022-07-05T12:17:14;3.28;;;1.58;;
61915;SDS011;47868;51.326;6.550;2022-07-05T12:19:40;7.13;;;2.22;;
61915;SDS011;47868;51.326;6.550;2022-07-05T12:22:06;7.20;;;2.28;;
61915;SDS011;47868;51.326;6.550;2022-07-05T12:24:32;3.70;;;1.70;;
61915;SDS011;47868;51.326;6.550;2022-07-05T12:26:58;5.80;;;2.38;;
61915;SDS011;47868;51.326;6.550;2022-07-05T12:29:24;2.22;;;1.90;;
61915;SDS011;47868;51.326;6.550;2022-07-05T12:32:00;4.88;;;1.73;;
61915;SDS011;47868;51.326;6.550;2022-07-05T12:34:27;3.80;;;2.00;;
61915;SDS011;47868;51.326;6.550;2022-07-05T12:36:54;3.35;;;1.92;;
61915;SDS011;47868;51.326;6.550;2022-07-05T12:39:20;6.47;;;2.28;;
61915;SDS011;47868;51.326;6.550;2022-07-05T12:41:46;3.85;;;1.80;;
61915;SDS011;47868;51.326;6.550;2022-07-05T12:44:12;3.90;;;1.77;;
61915;SDS011;47868;51.326;6.550;2022-07-05T12:46:42;5.93;;;2.80;;
61915;SDS011;47868;51.326;6.550;2022-07-05T12:49:09;3.97;;;2.70;;
61915;SDS011;47868;51.326;6.550;2022-07-05T12:51:36;3.10;;;1.90;;
61915;SDS011;47868;51.326;6.550;2022-07-05T12:54:07;4.43;;;2.00;;
61915;SDS011;47868;51.326;6.550;2022-07-05T12:57:00;6.53;;;2.70;;
61915;SDS011;47868;51.326;6.550;2022-07-05T13:00:27;3.45;;;1.80;;
61915;SDS011;47868;51.326;6.550;2022-07-05T13:05:12;4.32;;;2.30;;
61915;SDS011;47868;51.326;6.550;2022-07-05T13:07:46;3.80;;;1.90;;
61915;SDS011;47868;51.326;6.550;2022-07-05T13:10:12;3.85;;;1.88;;
61915;SDS011;47868;51.326;6.550;2022-07-05T13:12:42;6.20;;;3.50;;
61915;SDS011;47868;51.326;6.550;2022-07-05T13:15:08;9.75;;;3.25;;
61915;SDS011;47868;51.326;6.550;2022-07-05T13:17:35;10.20;;;3.30;;
61915;SDS011;47868;51.326;6.550;2022-07-05T13:20:01;3.75;;;2.13;;
61915;SDS011;47868;51.326;6.550;2022-07-05T13:22:28;6.70;;;2.15;;
61915;SDS011;47868;51.326;6.550;2022-07-05T13:24:54;9.00;;;1.90;;
61915;SDS011;47868;51.326;6.550;2022-07-05T13:27:20;6.45;;;2.22;;
61915;SDS011;47868;51.326;6.550;2022-07-05T13:29:46;3.33;;;2.03;;
61915;SDS011;47868;51.326;6.550;2022-07-05T13:32:13;2.85;;;1.80;;
61915;SDS011;47868;51.326;6.550;2022-07-05T13:34:41;4.03;;;1.88;;
61915;SDS011;47868;51.326;6.550;2022-07-05T13:37:10;3.75;;;1.83;;
61915;SDS011;47868;51.326;6.550;2022-07-05T13:39:36;4.57;;;1.88;;
61915;SDS011;47868;51.326;6.550;2022-07-05T13:42:03;7.20;;;2.10;;
61915;SDS011;47868;51.326;6.550;2022-07-05T13:44:31;7.85;;;2.10;;
61915;SDS011;47868;51.326;6.550;2022-07-05T13:46:57;6.03;;;2.25;;
61915;SDS011;47868;51.326;6.550;2022-07-05T13:49:22;5.95;;;2.10;;
61915;SDS011;47868;51.326;6.550;2022-07-05T13:51:48;4.82;;;1.90;;
61915;SDS011;47868;51.326;6.550;2022-07-05T13:54:14;3.65;;;2.00;;
61915;SDS011;47868;51.326;6.550;2022-07-05T13:56:40;4.13;;;2.80;;
61915;SDS011;47868;51.326;6.550;2022-07-05T13:59:06;6.55;;;3.05;;
61915;SDS011;47868;51.326;6.550;2022-07-05T14:01:31;6.50;;;2.70;;
61915;SDS011;47868;51.326;6.550;2022-07-05T14:03:57;4.97;;;2.88;;
61915;SDS011;47868;51.326;6.550;2022-07-05T14:06:27;5.93;;;3.08;;
61915;SDS011;47868;51.326;6.550;2022-07-05T14:08:54;8.07;;;3.20;;
61915;SDS011;47868;51.326;6.550;2022-07-05T14:11:20;6.93;;;2.90;;
61915;SDS011;47868;51.326;6.550;2022-07-05T14:13:46;6.97;;;2.60;;
61915;SDS011;47868;51.326;6.550;2022-07-05T14:16:12;3.83;;;2.70;;
61915;SDS011;47868;51.326;6.550;2022-07-05T14:18:37;9.10;;;3.08;;
61915;SDS011;47868;51.326;6.550;2022-07-05T14:21:03;9.77;;;3.65;;
61915;SDS011;47868;51.326;6.550;2022-07-05T14:23:29;4.07;;;2.97;;
61915;SDS011;47868;51.326;6.550;2022-07-05T14:25:57;10.68;;;3.88;;
61915;SDS011;47868;51.326;6.550;2022-07-05T14:28:23;7.25;;;3.17;;
61915;SDS011;47868;51.326;6.550;2022-07-05T14:30:49;6.47;;;3.53;;
61915;SDS011;47868;51.326;6.550;2022-07-05T14:33:15;6.28;;;3.45;;
61915;SDS011;47868;51.326;6.550;2022-07-05T14:35:40;5.15;;;3.20;;
61915;SDS011;47868;51.326;6.550;2022-07-05T14:38:06;4.30;;;3.00;;
61915;SDS011;47868;51.326;6.550;2022-07-05T14:40:33;5.55;;;3.10;;
61915;SDS011;47868;51.326;6.550;2022-07-05T14:42:59;6.35;;;3.20;;
61915;SDS011;47868;51.326;6.550;2022-07-05T14:45:26;8.73;;;3.42;;
61915;SDS011;47868;51.326;6.550;2022-07-05T14:47:52;9.10;;;2.80;;
61915;SDS011;47868;51.326;6.550;2022-07-05T14:50:18;5.65;;;3.25;;
61915;SDS011;47868;51.326;6.550;2022-07-05T14:52:45;6.80;;;2.92;;
61915;SDS011;47868;51.326;6.550;2022-07-05T14:55:11;3.33;;;2.92;;
61915;SDS011;47868;51.326;6.550;2022-07-05T14:57:38;7.00;;;4.07;;
61915;SDS011;47868;51.326;6.550;2022-07-05T15:00:05;7.13;;;3.40;;
61915;SDS011;47868;51.326;6.550;2022-07-05T15:02:33;7.05;;;3.78;;
61915;SDS011;47868;51.326;6.550;2022-07-05T15:04:59;5.38;;;3.55;;
61915;SDS011;47868;51.326;6.550;2022-07-05T15:07:25;4.90;;;3.50;;
61915;SDS011;47868;51.326;6.550;2022-07-05T15:09:50;4.10;;;3.53;;
61915;SDS011;47868;51.326;6.550;2022-07-05T15:12:16;5.78;;;3.40;;
61915;SDS011;47868;51.326;6.550;2022-07-05T15:14:42;5.53;;;3.63;;
61915;SDS011;47868;51.326;6.550;2022-07-05T15:17:09;4.53;;;2.97;;
61915;SDS011;47868;51.326;6.550;2022-07-05T15:19:34;7.07;;;3.13;;